Terminal Aerodrome Forecast
Issued by NWS Twin Cities, MN

Home | Current Version | Previous Version | Graphics & Text | Print | Product List | Glossary On
Versions: 1 2 3 4 5 6 7 8 9 10 11 12 13 14
183
FTUS43 KMPX 011120
TAFSTC
TAF
KSTC 011120Z 0112/0212 03009KT P6SM SCT250
     FM011600 03009G16KT P6SM FEW060
     FM020000 VRB03KT P6SM SKC=

USA.gov is the U.S. government's official web portal to all federal, state and local government web resources and services.